Louisville, Georgia
Current Conditions -  °F | °C
As of 1:55 PM on Friday 24 Oct 2014 (Local Time) from KOKZ Reporting Station
Clear Clear  
Wind Chill: 23°   Ceiling: Unl
Heat Index: 23°   Visibility: 10mi
Dew Point:   Wind: 3mph
Humidity: 36%   Direction: 350°N
Pressure: 30.04"   Gusts: NA
Location:  33°N, 82.41°W
Report Text: KOKZ 241755Z AUTO 35003KT 10SM CLR 23/07 A3004 RMK AO2 T02250067 10229 20067
Loading
Personal Weather Stations






























Interactive Weather Map
Tropical Storm Tracking
New forecast layout! Learn more

10-Day Weather Forecast

Advertisements
Track Severe Weather on mobile